Aeroporto :
LOGIN :

Iscrizione | Disclaimer

   EN    FR    IT 

 










Sommario :    VFR   VFR Marginale   IFR   IFR Intensivo   IFR Molto Intensivo
Visibilità : 
Base nubi : 
>= 8 km
>= 3000ft
5 / 8 km
1000 / 3000 ft
1500m / 5 km
500 / 1000 ft
800 / 1500m
200 / 500 ft
< 800m
< 200 ft
Simboli :   Temporali  Nebbia  Neve Forte  Precipitazioni Forti  Vento > 20 kt
SIGMETs :   Varie  Temporali  Ghiacco  Turbolenza  Onda orograficha  Ceneri Vulcaniche






- Altitudine del aeroporto : 1300 ft
- Codice IATA : LIG


LFBL - Limoges

ULTIMO METAR :
  • 292330Z AUTO 25010KT 210V270 5000 -RA BR OVC004 14/14 Q1014 TEMPO 1000 RADZ

METARs OBSOLETI :
  • 292300Z AUTO 25009KT 5000 -RA BR OVC004 14/14 Q1014 TEMPO 1000 RADZ
  • 292230Z AUTO 25008KT 210V280 4700 DZ BR OVC004 14/14 Q1014 TEMPO 1000 RADZ
  • 292200Z AUTO 23009KT 6000 -DZ OVC004 14/14 Q1015 TEMPO 1000 RADZ
  • 292130Z AUTO 24008KT 210V270 4100 -DZ BR OVC003 14/14 Q1015 TEMPO 1000 RADZ
  • 292100Z AUTO 23009KT 200V260 4400 -DZ BR OVC003 14/14 Q1015 TEMPO 1000 RADZ
  • 292030Z AUTO 22010KT 4200 -DZ BR OVC003 14/14 Q1015 TEMPO 1000 RADZ
  • 292000Z AUTO 22009KT 9000 OVC003 14/14 Q1015 TEMPO 1000 RADZ
  • 291930Z AUTO 22010KT 4000 DZ BR OVC003 14/14 Q1015 TEMPO 1000 RADZ
  • 291900Z AUTO 22008KT 7000 1900 -RADZ OVC003 14/14 Q1016 TEMPO 1000 RADZ

TAF TAF LFBL
Valido dal 29 a 18 ore il 30 a 18 ore UTC


291700Z 2918/3018 24010KT 9999 BKN010
TEMPO 2918/3006 4000 RADZ BKN005
PROB40
TEMPO 2918/3006 1000 RADZ BKN002
PROB30
TEMPO 3006/3009 4000 -SHRA BKN006TCU
BECMG 3009/3011 BKN025
PROB40
TEMPO 3014/3017 28015G30KT 4000 SHRA BKN020TCU
PROB30 3015/3017 2000 SHRA BKN005 BKN020TCU
ATIS : +33 5 55 48 40 37



MetMap, La meteo Aeronautica in un colpo d'occhio ! - Copyright ORBIFLY Dicembre 2007 - Disclaimer

ORBIFLY MET'MAP TEAM :

Programmazione e sviluppo : Alexandra Zaïnal
Concezione : Baudouin d'Aumeries
Supporto tecnico e logistico : Manuel Goepfert
Aiuto : Marc-Olivier Méhu
Aiuto per la traduzione : Arnaldo La Scala




FONTI E CREDITI :

   NOAA